Time;durP1;ratioP1;P1;durP2;ratioP2;P2;SDS_P1;SDS_P2;PMS_P1;PMS_P2;Temp;Humidity;BMP_temperature;BMP_pressure;BME280_temperature;BME280_humidity;BME280_pressure;Samples;Min_cycle;Max_cycle;Signal;HPM_P1;HPM_P2
2024/02/03 00:00:01;;;;;;;11.50;10.27;;;;;;;;;;5112537;28;20617;-81
2024/02/03 00:02:28;;;;;;;12.77;10.23;;;;;;;;;;5113707;28;20208;-80
2024/02/03 00:04:54;;;;;;;15.33;10.57;;;;;;;;;;5099523;28;20206;-81
2024/02/03 00:07:22;;;;;;;13.93;10.47;;;;;;;;;;5099453;28;20208;-85
2024/02/03 00:09:48;;;;;;;12.13;10.33;;;;;;;;;;5092683;28;20215;-81
2024/02/03 00:12:18;;;;;;;14.40;10.37;;;;;;;;;;5104959;28;20211;-81
2024/02/03 00:14:45;;;;;;;11.83;10.03;;;;;;;;;;5112644;28;20261;-80
2024/02/03 00:17:12;;;;;;;12.00;9.67;;;;;;;;;;5112582;28;20298;-81
2024/02/03 00:19:40;;;;;;;12.77;9.57;;;;;;;;;;5112789;28;20231;-80
2024/02/03 00:22:07;;;;;;;14.27;10.67;;;;;;;;;;5111326;28;20195;-79
2024/02/03 00:24:34;;;;;;;13.43;10.67;;;;;;;;;;5099890;28;20195;-80
2024/02/03 00:27:02;;;;;;;13.40;10.80;;;;;;;;;;5112159;28;20669;-80
2024/02/03 00:29:30;;;;;;;12.63;10.80;;;;;;;;;;5112670;28;20233;-80
2024/02/03 00:31:57;;;;;;;11.37;9.53;;;;;;;;;;5099308;28;20236;-80
2024/02/03 00:34:24;;;;;;;13.57;10.73;;;;;;;;;;5112940;28;20231;-81
2024/02/03 00:36:51;;;;;;;15.83;10.87;;;;;;;;;;5112377;28;20701;-80
2024/02/03 00:39:18;;;;;;;17.10;12.70;;;;;;;;;;5102868;28;20215;-80
2024/02/03 00:41:45;;;;;;;15.47;11.33;;;;;;;;;;5105574;28;20200;-80
2024/02/03 00:44:14;;;;;;;14.63;11.57;;;;;;;;;;5101951;28;20206;-80
2024/02/03 00:46:42;;;;;;;14.87;11.53;;;;;;;;;;5095258;28;20295;-80
2024/02/03 00:49:09;;;;;;;18.17;12.30;;;;;;;;;;5091854;28;20215;-80
2024/02/03 00:51:36;;;;;;;15.23;11.40;;;;;;;;;;5095600;28;20227;-80
2024/02/03 00:54:03;;;;;;;15.70;12.73;;;;;;;;;;5101305;28;20232;-81
2024/02/03 00:56:31;;;;;;;18.43;15.27;;;;;;;;;;5105535;28;21573;-81
2024/02/03 00:58:57;;;;;;;16.43;12.43;;;;;;;;;;5091704;28;20215;-81
2024/02/03 01:01:24;;;;;;;16.73;11.47;;;;;;;;;;5091466;28;20599;-86
2024/02/03 01:03:52;;;;;;;15.67;12.47;;;;;;;;;;5102662;28;20746;-81
2024/02/03 01:06:19;;;;;;;15.60;13.40;;;;;;;;;;5111786;28;20203;-80
2024/02/03 01:08:47;;;;;;;15.27;11.03;;;;;;;;;;5112098;28;20207;-81
2024/02/03 01:11:14;;;;;;;14.93;11.37;;;;;;;;;;5111538;28;20253;-81
2024/02/03 01:13:42;;;;;;;16.87;12.53;;;;;;;;;;5111762;28;20215;-81
2024/02/03 01:16:09;;;;;;;12.97;10.20;;;;;;;;;;5106252;28;20201;-80
2024/02/03 01:18:36;;;;;;;13.73;10.90;;;;;;;;;;5103609;28;20211;-80
2024/02/03 01:21:05;;;;;;;13.80;11.30;;;;;;;;;;5111682;28;20766;-80
2024/02/03 01:23:31;;;;;;;11.83;10.63;;;;;;;;;;5098656;28;20208;-81
2024/02/03 01:26:01;;;;;;;13.90;11.33;;;;;;;;;;5111409;28;20199;-81
2024/02/03 01:28:28;;;;;;;14.60;11.10;;;;;;;;;;5111651;28;20213;-82
2024/02/03 01:30:55;;;;;;;14.37;10.50;;;;;;;;;;5098793;28;20235;-81
2024/02/03 01:33:21;;;;;;;14.70;11.87;;;;;;;;;;5111036;28;20600;-81
2024/02/03 01:35:48;;;;;;;12.87;10.63;;;;;;;;;;5099053;28;20214;-80
2024/02/03 01:38:17;;;;;;;14.17;10.57;;;;;;;;;;5110775;28;20681;-81
2024/02/03 01:40:43;;;;;;;14.17;10.23;;;;;;;;;;5099691;28;20230;-80
2024/02/03 01:43:13;;;;;;;11.87;10.67;;;;;;;;;;5111561;28;20610;-80
2024/02/03 01:45:40;;;;;;;13.70;10.77;;;;;;;;;;5102937;28;20200;-80
2024/02/03 01:48:07;;;;;;;13.93;10.23;;;;;;;;;;5104600;28;20203;-81
2024/02/03 01:50:34;;;;;;;12.83;10.20;;;;;;;;;;5090942;28;20216;-81
2024/02/03 01:53:02;;;;;;;11.97;9.63;;;;;;;;;;5104738;28;20204;-81
2024/02/03 01:55:32;;;;;;;12.50;10.07;;;;;;;;;;5101136;28;20262;-81
2024/02/03 01:58:01;;;;;;;12.40;10.30;;;;;;;;;;5111416;28;20205;-81
2024/02/03 02:00:29;;;;;;;13.93;9.80;;;;;;;;;;5111482;28;20230;-81
2024/02/03 02:02:56;;;;;;;13.73;9.93;;;;;;;;;;5111800;28;20199;-81
2024/02/03 02:05:23;;;;;;;12.77;9.90;;;;;;;;;;5111318;28;20203;-81
2024/02/03 02:07:49;;;;;;;13.80;10.40;;;;;;;;;;5097323;28;20199;-81
2024/02/03 02:10:17;;;;;;;13.37;10.03;;;;;;;;;;5111049;28;20207;-81
2024/02/03 02:12:45;;;;;;;12.03;9.93;;;;;;;;;;5111155;28;20211;-81
2024/02/03 02:15:12;;;;;;;13.10;10.33;;;;;;;;;;5098874;28;20212;-80
2024/02/03 02:17:39;;;;;;;11.23;10.00;;;;;;;;;;5090846;28;20204;-81
2024/02/03 02:20:08;;;;;;;15.17;9.97;;;;;;;;;;5104075;28;20227;-81
2024/02/03 02:22:35;;;;;;;12.67;10.67;;;;;;;;;;5111066;28;20720;-81
2024/02/03 02:25:02;;;;;;;18.77;10.00;;;;;;;;;;5111189;28;20227;-81
2024/02/03 02:27:30;;;;;;;13.97;10.57;;;;;;;;;;5097430;28;20218;-82
2024/02/03 02:29:56;;;;;;;12.10;10.33;;;;;;;;;;5110997;28;20223;-81
2024/02/03 02:32:23;;;;;;;11.43;9.53;;;;;;;;;;5110966;28;20202;-82
2024/02/03 02:34:50;;;;;;;14.80;10.70;;;;;;;;;;5098083;28;20713;-82
2024/02/03 02:37:18;;;;;;;11.37;9.37;;;;;;;;;;5113503;28;20208;-81
2024/02/03 02:39:45;;;;;;;13.90;11.33;;;;;;;;;;5114571;28;20220;-81
2024/02/03 02:42:12;;;;;;;15.50;11.20;;;;;;;;;;5101148;28;20228;-81
2024/02/03 02:44:38;;;;;;;13.47;10.30;;;;;;;;;;5114696;28;20234;-80
2024/02/03 02:47:05;;;;;;;13.77;9.93;;;;;;;;;;5114762;28;20614;-80
2024/02/03 02:49:32;;;;;;;14.30;10.63;;;;;;;;;;5100796;28;20260;-80
2024/02/03 02:52:02;;;;;;;14.30;10.87;;;;;;;;;;5114409;28;20290;-84
2024/02/03 02:54:31;;;;;;;12.83;10.43;;;;;;;;;;5100614;28;20671;-83
2024/02/03 02:56:58;;;;;;;48.80;28.27;;;;;;;;;;5114189;28;20199;-80
2024/02/03 02:59:24;;;;;;;29.07;19.57;;;;;;;;;;5114217;28;20719;-80
2024/02/03 03:01:51;;;;;;;129.17;70.10;;;;;;;;;;5100796;28;20228;-80
2024/02/03 03:04:18;;;;;;;22.67;14.37;;;;;;;;;;5114132;28;20693;-81
2024/02/03 03:06:45;;;;;;;17.30;11.90;;;;;;;;;;5107448;28;20208;-81
2024/02/03 03:09:12;;;;;;;14.57;11.20;;;;;;;;;;5107657;28;20199;-80
2024/02/03 03:11:40;;;;;;;14.53;11.53;;;;;;;;;;5113717;28;20231;-83
2024/02/03 03:14:07;;;;;;;15.20;12.07;;;;;;;;;;5113944;28;20693;-80
2024/02/03 03:16:34;;;;;;;12.67;10.43;;;;;;;;;;5113972;28;20210;-80
2024/02/03 03:19:01;;;;;;;13.03;9.97;;;;;;;;;;5112512;28;20283;-79
2024/02/03 03:21:27;;;;;;;15.53;10.27;;;;;;;;;;5101188;28;20697;-80
2024/02/03 03:23:54;;;;;;;12.03;10.53;;;;;;;;;;5100090;28;20200;-80
2024/02/03 03:26:21;;;;;;;14.97;10.00;;;;;;;;;;5096659;28;20213;-81
2024/02/03 03:28:49;;;;;;;11.67;9.80;;;;;;;;;;5099013;28;20205;-81
2024/02/03 03:31:16;;;;;;;11.47;9.20;;;;;;;;;;5106885;28;20228;-81
2024/02/03 03:33:43;;;;;;;17.13;12.53;;;;;;;;;;5105165;28;20585;-80
2024/02/03 03:36:10;;;;;;;19.60;15.13;;;;;;;;;;5113792;28;20200;-81
2024/02/03 03:38:42;;;;;;;17.10;11.93;;;;;;;;;;5113620;28;20253;-81
2024/02/03 03:41:09;;;;;;;19.97;14.37;;;;;;;;;;5093210;28;20281;-81
2024/02/03 03:43:36;;;;;;;30.63;19.57;;;;;;;;;;5106697;28;20697;-83
2024/02/03 03:46:04;;;;;;;31.73;23.27;;;;;;;;;;5092805;28;20678;-82
2024/02/03 03:48:32;;;;;;;53.90;33.40;;;;;;;;;;5106800;28;20203;-81
2024/02/03 03:51:01;;;;;;;52.03;32.17;;;;;;;;;;5100652;28;20199;-80
2024/02/03 03:53:28;;;;;;;211.03;107.03;;;;;;;;;;5113448;28;20206;-80
2024/02/03 03:55:55;;;;;;;24.57;16.27;;;;;;;;;;5113386;28;20200;-80
2024/02/03 03:58:22;;;;;;;19.83;13.00;;;;;;;;;;5109380;28;20641;-79
2024/02/03 04:00:48;;;;;;;13.73;10.83;;;;;;;;;;5112944;28;20219;-81
2024/02/03 04:03:16;;;;;;;13.83;10.93;;;;;;;;;;5100343;28;20673;-80
2024/02/03 04:05:43;;;;;;;13.30;11.13;;;;;;;;;;5092629;28;20200;-79
2024/02/03 04:08:11;;;;;;;13.27;9.67;;;;;;;;;;5106330;28;20208;-80
2024/02/03 04:10:38;;;;;;;15.23;12.00;;;;;;;;;;5103453;28;20203;-78
2024/02/03 04:13:05;;;;;;;101.13;46.13;;;;;;;;;;5099304;28;20204;-80
2024/02/03 04:15:32;;;;;;;166.50;91.73;;;;;;;;;;5112569;28;20214;-80
2024/02/03 04:18:03;;;;;;;168.00;93.33;;;;;;;;;;5113056;28;20207;-80
2024/02/03 04:20:31;;;;;;;133.03;70.47;;;;;;;;;;5101399;28;20598;-79
2024/02/03 04:22:58;;;;;;;38.57;23.30;;;;;;;;;;5092298;28;20201;-79
2024/02/03 04:25:24;;;;;;;27.83;16.70;;;;;;;;;;5107244;28;20615;-80
2024/02/03 04:27:51;;;;;;;38.80;26.07;;;;;;;;;;5112469;28;20630;-80
2024/02/03 04:30:19;;;;;;;59.73;39.90;;;;;;;;;;5099019;28;20606;-79
2024/02/03 04:32:46;;;;;;;41.90;31.23;;;;;;;;;;5112210;28;20712;-80
2024/02/03 04:35:13;;;;;;;43.67;31.43;;;;;;;;;;5109896;28;20215;-80
2024/02/03 04:37:41;;;;;;;41.20;29.27;;;;;;;;;;5102142;28;20203;-80
2024/02/03 04:40:08;;;;;;;36.17;24.77;;;;;;;;;;5108870;28;20204;-80
2024/02/03 04:42:35;;;;;;;27.00;21.27;;;;;;;;;;5112644;28;20668;-83
2024/02/03 04:45:02;;;;;;;26.27;17.30;;;;;;;;;;5108851;28;20559;-80
2024/02/03 04:47:29;;;;;;;19.30;14.50;;;;;;;;;;5092407;28;20211;-80
2024/02/03 04:49:56;;;;;;;16.77;13.20;;;;;;;;;;5109163;28;20204;-79
2024/02/03 04:52:22;;;;;;;15.00;11.57;;;;;;;;;;5112201;28;20207;-80
2024/02/03 04:54:51;;;;;;;16.80;12.90;;;;;;;;;;5098678;28;20207;-80
2024/02/03 04:57:18;;;;;;;19.87;14.57;;;;;;;;;;5112046;28;20210;-80
2024/02/03 04:59:45;;;;;;;30.07;20.63;;;;;;;;;;5107331;28;20215;-80
2024/02/03 05:02:12;;;;;;;22.47;18.13;;;;;;;;;;5102528;28;20276;-80
2024/02/03 05:04:38;;;;;;;17.37;12.87;;;;;;;;;;5098548;28;20264;-80
2024/02/03 05:07:05;;;;;;;14.37;10.83;;;;;;;;;;5111882;28;20207;-80
2024/02/03 05:09:32;;;;;;;15.97;10.23;;;;;;;;;;5098763;28;20213;-80
2024/02/03 05:12:02;;;;;;;14.13;10.53;;;;;;;;;;5112226;28;20206;-80
2024/02/03 05:14:29;;;;;;;14.13;10.43;;;;;;;;;;5092655;28;20213;-80
2024/02/03 05:16:56;;;;;;;13.70;10.77;;;;;;;;;;5104328;28;20332;-80
2024/02/03 05:19:25;;;;;;;21.83;12.20;;;;;;;;;;5111552;28;20256;-80
2024/02/03 05:21:52;;;;;;;15.80;12.13;;;;;;;;;;5111355;28;20230;-80
2024/02/03 05:24:19;;;;;;;18.30;12.20;;;;;;;;;;5097884;28;20210;-80
2024/02/03 05:26:45;;;;;;;15.20;11.70;;;;;;;;;;5098769;28;20668;-80
2024/02/03 05:29:13;;;;;;;14.23;10.67;;;;;;;;;;5104685;28;20611;-80
2024/02/03 05:31:40;;;;;;;11.70;10.30;;;;;;;;;;5105280;28;20296;-80
2024/02/03 05:34:07;;;;;;;18.07;12.20;;;;;;;;;;5098134;28;20215;-80
2024/02/03 05:36:34;;;;;;;28.50;20.87;;;;;;;;;;5111850;28;20207;-83
2024/02/03 05:39:00;;;;;;;26.57;18.97;;;;;;;;;;5091093;28;20200;-80
2024/02/03 05:41:27;;;;;;;17.30;13.43;;;;;;;;;;5105078;28;20651;-80
2024/02/03 05:43:54;;;;;;;14.40;11.03;;;;;;;;;;5111185;28;20232;-80
2024/02/03 05:46:22;;;;;;;11.40;10.20;;;;;;;;;;5111183;28;20207;-80
2024/02/03 05:48:54;;;;;;;14.60;9.83;;;;;;;;;;5111672;28;20211;-80
2024/02/03 05:51:20;;;;;;;15.00;10.17;;;;;;;;;;5098246;28;20211;-80
2024/02/03 05:53:47;;;;;;;15.07;11.23;;;;;;;;;;5110973;28;20207;-80
2024/02/03 05:56:14;;;;;;;14.77;10.90;;;;;;;;;;5108920;28;20214;-79
2024/02/03 05:58:42;;;;;;;16.73;12.83;;;;;;;;;;5099959;28;20681;-80
2024/02/03 06:01:09;;;;;;;21.27;16.57;;;;;;;;;;5110925;28;20689;-80
2024/02/03 06:03:38;;;;;;;20.07;14.33;;;;;;;;;;5110429;28;20199;-80
2024/02/03 06:06:05;;;;;;;23.07;16.60;;;;;;;;;;5110842;28;20204;-80
2024/02/03 06:08:32;;;;;;;19.40;15.33;;;;;;;;;;5110305;28;20248;-80
2024/02/03 06:10:59;;;;;;;19.80;15.33;;;;;;;;;;5101027;28;20253;-80
2024/02/03 06:13:26;;;;;;;22.93;15.10;;;;;;;;;;5093974;28;20571;-79
2024/02/03 06:15:53;;;;;;;18.40;14.53;;;;;;;;;;5107095;28;20712;-81
2024/02/03 06:18:20;;;;;;;25.50;17.53;;;;;;;;;;5105553;28;20286;-80
2024/02/03 06:20:48;;;;;;;22.50;15.63;;;;;;;;;;5106806;28;20199;-80
2024/02/03 06:23:15;;;;;;;17.90;15.03;;;;;;;;;;5113116;28;20271;-79
2024/02/03 06:25:42;;;;;;;21.73;16.77;;;;;;;;;;5096703;28;20238;-83
2024/02/03 06:28:10;;;;;;;25.73;17.60;;;;;;;;;;5104574;28;20204;-79
2024/02/03 06:30:37;;;;;;;55.03;42.50;;;;;;;;;;5100599;28;20265;-79
2024/02/03 06:33:04;;;;;;;38.03;30.83;;;;;;;;;;5113899;28;20199;-80
2024/02/03 06:35:31;;;;;;;35.60;24.13;;;;;;;;;;5113985;28;20260;-79
2024/02/03 06:38:00;;;;;;;151.10;70.87;;;;;;;;;;5113899;28;20656;-80
2024/02/03 06:40:27;;;;;;;391.43;165.57;;;;;;;;;;5094763;28;20237;-80
2024/02/03 06:42:54;;;;;;;69.27;42.13;;;;;;;;;;5095933;28;20224;-80
2024/02/03 06:45:21;;;;;;;36.50;32.13;;;;;;;;;;5100482;28;20282;-80
2024/02/03 06:47:48;;;;;;;49.33;32.77;;;;;;;;;;5113092;28;20681;-79
2024/02/03 06:50:15;;;;;;;122.63;73.93;;;;;;;;;;5100173;28;20199;-80
2024/02/03 06:52:41;;;;;;;52.40;39.27;;;;;;;;;;5114021;28;20211;-80
2024/02/03 06:55:10;;;;;;;22.70;18.73;;;;;;;;;;5099706;28;20195;-79
2024/02/03 06:57:36;;;;;;;19.53;15.17;;;;;;;;;;5113475;28;20203;-79
2024/02/03 07:00:05;;;;;;;21.83;16.00;;;;;;;;;;5112092;28;20195;-79
2024/02/03 07:02:32;;;;;;;32.23;22.77;;;;;;;;;;5098496;28;20227;-79
2024/02/03 07:05:01;;;;;;;28.03;19.57;;;;;;;;;;5113129;28;20199;-79
2024/02/03 07:07:28;;;;;;;30.00;22.80;;;;;;;;;;5105201;28;20708;-79
2024/02/03 07:09:58;;;;;;;38.10;24.07;;;;;;;;;;5113016;28;20192;-78
2024/02/03 07:12:27;;;;;;;24.37;20.63;;;;;;;;;;5113395;28;20203;-79
2024/02/03 07:14:54;;;;;;;23.90;18.17;;;;;;;;;;5095755;28;20214;-78
2024/02/03 07:17:23;;;;;;;24.50;17.43;;;;;;;;;;5078818;28;20194;-84
2024/02/03 07:19:50;;;;;;;25.57;18.37;;;;;;;;;;5113610;28;20204;-85
2024/02/03 07:22:17;;;;;;;42.30;22.57;;;;;;;;;;5111548;28;20270;-85
2024/02/03 07:24:44;;;;;;;27.47;17.13;;;;;;;;;;5113314;28;20694;-85
2024/02/03 07:27:12;;;;;;;26.37;17.47;;;;;;;;;;5095176;28;20222;-85
2024/02/03 07:29:41;;;;;;;25.00;16.03;;;;;;;;;;5103130;28;20227;-86
2024/02/03 07:32:08;;;;;;;18.50;14.33;;;;;;;;;;5075609;28;20656;-86
2024/02/03 07:34:34;;;;;;;20.50;13.30;;;;;;;;;;5102901;28;20223;-85
2024/02/03 07:37:02;;;;;;;11.97;8.77;;;;;;;;;;5100121;28;20204;-84
2024/02/03 07:39:29;;;;;;;9.70;6.90;;;;;;;;;;5092104;28;20227;-84
2024/02/03 07:41:56;;;;;;;10.50;8.63;;;;;;;;;;5112842;28;20591;-84
2024/02/03 07:44:23;;;;;;;14.47;9.43;;;;;;;;;;5078453;28;20273;-84
2024/02/03 07:46:51;;;;;;;11.00;9.03;;;;;;;;;;5085146;28;20207;-85
2024/02/03 07:49:18;;;;;;;16.17;11.00;;;;;;;;;;5095109;28;20218;-85
2024/02/03 07:51:45;;;;;;;12.50;7.67;;;;;;;;;;5104599;28;20216;-85
2024/02/03 07:54:13;;;;;;;8.87;5.93;;;;;;;;;;5076667;28;20215;-85
2024/02/03 07:56:39;;;;;;;8.70;6.47;;;;;;;;;;5085472;28;20288;-84
2024/02/03 07:59:06;;;;;;;6.83;5.27;;;;;;;;;;5094622;28;20223;-84
2024/02/03 08:01:33;;;;;;;6.57;5.33;;;;;;;;;;5112962;28;20199;-82
2024/02/03 08:04:05;;;;;;;6.33;5.43;;;;;;;;;;5112110;28;20206;-82
2024/02/03 08:06:32;;;;;;;9.67;6.20;;;;;;;;;;5094009;28;20211;-84
2024/02/03 08:09:01;;;;;;;8.13;6.07;;;;;;;;;;5094445;28;20229;-84
2024/02/03 08:11:27;;;;;;;7.60;6.50;;;;;;;;;;5095090;28;20257;-81
2024/02/03 08:13:55;;;;;;;7.63;5.43;;;;;;;;;;5094010;28;20264;-84
2024/02/03 08:16:23;;;;;;;8.90;6.40;;;;;;;;;;5085616;28;20203;-87
2024/02/03 08:18:51;;;;;;;5.80;5.20;;;;;;;;;;5093841;28;20204;-86
2024/02/03 08:21:20;;;;;;;6.27;4.70;;;;;;;;;;5077985;28;20215;-85
2024/02/03 08:23:48;;;;;;;6.90;4.37;;;;;;;;;;5110009;28;20231;-88
2024/02/03 08:26:16;;;;;;;5.27;4.77;;;;;;;;;;5077627;28;20211;-86
2024/02/03 08:28:43;;;;;;;6.70;4.73;;;;;;;;;;5094592;28;20556;-85
2024/02/03 08:31:12;;;;;;;6.50;4.83;;;;;;;;;;5112242;28;20238;-85
2024/02/03 08:33:39;;;;;;;4.37;3.80;;;;;;;;;;5083872;28;20275;-85
2024/02/03 08:36:09;;;;;;;6.10;3.90;;;;;;;;;;5077576;28;20208;-83
2024/02/03 08:38:38;;;;;;;4.97;4.30;;;;;;;;;;5090526;28;20212;-86
2024/02/03 08:41:05;;;;;;;5.23;3.87;;;;;;;;;;5065748;28;20214;-83
2024/02/03 08:43:33;;;;;;;7.30;5.33;;;;;;;;;;5106777;28;20235;-86
2024/02/03 08:46:03;;;;;;;17.83;10.47;;;;;;;;;;5087403;28;20210;-88
2024/02/03 08:48:30;;;;;;;10.27;6.17;;;;;;;;;;5087245;28;20195;-87
2024/02/03 08:50:58;;;;;;;5.73;4.40;;;;;;;;;;5081483;28;20211;-83
2024/02/03 08:53:24;;;;;;;5.33;4.67;;;;;;;;;;5097489;28;20211;-83
2024/02/03 08:55:53;;;;;;;4.77;4.07;;;;;;;;;;5074962;28;20208;-84
2024/02/03 08:58:20;;;;;;;5.97;4.33;;;;;;;;;;5092230;28;20585;-86
2024/02/03 09:00:47;;;;;;;4.53;3.87;;;;;;;;;;5102899;28;20204;-86
2024/02/03 09:03:14;;;;;;;9.27;6.97;;;;;;;;;;5112179;28;20223;-86
2024/02/03 09:05:41;;;;;;;13.37;11.20;;;;;;;;;;5077247;28;20211;-85
2024/02/03 09:08:08;;;;;;;4.47;4.07;;;;;;;;;;5089639;28;20200;-86
2024/02/03 09:10:36;;;;;;;6.03;4.17;;;;;;;;;;5070775;28;20632;-86
2024/02/03 09:13:04;;;;;;;10.67;6.73;;;;;;;;;;5081958;28;20214;-86
2024/02/03 09:15:31;;;;;;;7.27;5.43;;;;;;;;;;5096830;28;20582;-87
2024/02/03 09:18:01;;;;;;;5.30;4.63;;;;;;;;;;5065631;28;20203;-86
2024/02/03 09:20:28;;;;;;;3.50;3.20;;;;;;;;;;5099007;28;20204;-86
2024/02/03 09:22:56;;;;;;;4.17;2.90;;;;;;;;;;5110272;28;20750;-86
2024/02/03 09:25:23;;;;;;;4.03;3.20;;;;;;;;;;5098660;28;20204;-86
2024/02/03 09:27:50;;;;;;;4.33;3.23;;;;;;;;;;5057497;28;20249;-87
2024/02/03 09:30:19;;;;;;;6.83;2.87;;;;;;;;;;5085408;28;20240;-88
2024/02/03 09:32:46;;;;;;;2.67;2.40;;;;;;;;;;5090817;28;20197;-86
2024/02/03 09:35:13;;;;;;;4.10;3.10;;;;;;;;;;5090399;28;20265;-84
2024/02/03 09:37:40;;;;;;;6.20;3.10;;;;;;;;;;5081180;28;20193;-87
2024/02/03 09:40:09;;;;;;;3.23;2.43;;;;;;;;;;5073250;28;20208;-86
2024/02/03 09:42:37;;;;;;;9.50;6.43;;;;;;;;;;5082844;28;20231;-86
2024/02/03 09:45:05;;;;;;;7.30;5.83;;;;;;;;;;5082753;28;20200;-85
2024/02/03 09:47:33;;;;;;;5.10;3.40;;;;;;;;;;5098246;28;20581;-84
2024/02/03 09:50:02;;;;;;;3.87;3.53;;;;;;;;;;5097815;28;20286;-85
2024/02/03 09:52:29;;;;;;;5.67;4.47;;;;;;;;;;5098027;28;20231;-85
2024/02/03 09:54:56;;;;;;;6.73;4.73;;;;;;;;;;5098195;28;20207;-84
2024/02/03 09:57:23;;;;;;;3.70;3.13;;;;;;;;;;5084085;28;20749;-86
2024/02/03 09:59:51;;;;;;;5.30;3.50;;;;;;;;;;5093572;28;20216;-87
2024/02/03 10:02:18;;;;;;;8.33;4.47;;;;;;;;;;5091434;28;20659;-84
2024/02/03 10:04:47;;;;;;;4.87;3.60;;;;;;;;;;5090528;28;20207;-85
2024/02/03 10:07:19;;;;;;;5.90;4.33;;;;;;;;;;5098137;28;20291;-84
2024/02/03 10:09:46;;;;;;;4.20;3.70;;;;;;;;;;5089261;28;20212;-86
2024/02/03 10:12:18;;;;;;;5.53;3.83;;;;;;;;;;5090485;28;20204;-85
2024/02/03 10:14:45;;;;;;;4.40;3.50;;;;;;;;;;5096537;28;20287;-85
2024/02/03 10:17:11;;;;;;;5.10;3.30;;;;;;;;;;5097418;28;20196;-83
2024/02/03 10:19:39;;;;;;;4.17;3.40;;;;;;;;;;5097679;28;20208;-84
2024/02/03 10:22:08;;;;;;;4.47;3.83;;;;;;;;;;5081988;28;20390;-85
2024/02/03 10:24:34;;;;;;;3.80;2.40;;;;;;;;;;5097452;28;20220;-84
2024/02/03 10:27:02;;;;;;;3.60;2.80;;;;;;;;;;5097402;28;20208;-84
2024/02/03 10:29:29;;;;;;;4.20;2.93;;;;;;;;;;5097694;28;20211;-84
2024/02/03 10:31:56;;;;;;;4.13;2.40;;;;;;;;;;5112956;28;20239;-83
2024/02/03 10:34:23;;;;;;;4.63;2.87;;;;;;;;;;5117671;28;20207;-82
2024/02/03 10:36:52;;;;;;;3.43;2.93;;;;;;;;;;5117258;28;20228;-89
2024/02/03 10:39:21;;;;;;;3.60;2.90;;;;;;;;;;5072003;28;20218;-89
2024/02/03 10:41:49;;;;;;;5.13;2.63;;;;;;;;;;5086684;28;20291;-83
2024/02/03 10:44:21;;;;;;;6.00;2.77;;;;;;;;;;5118617;28;20242;-91
2024/02/03 10:46:50;;;;;;;6.40;3.17;;;;;;;;;;5102541;28;20212;-88
2024/02/03 10:49:19;;;;;;;5.03;3.40;;;;;;;;;;5099434;28;20203;-89
2024/02/03 10:51:48;;;;;;;6.13;2.30;;;;;;;;;;5103981;28;20215;-89
2024/02/03 10:54:17;;;;;;;3.20;2.70;;;;;;;;;;5117895;28;20243;-87
2024/02/03 10:56:49;;;;;;;3.40;3.03;;;;;;;;;;5095242;28;20213;-87
2024/02/03 10:59:20;;;;;;;3.47;3.10;;;;;;;;;;5087085;28;20204;-89
2024/02/03 11:01:47;;;;;;;6.33;4.00;;;;;;;;;;5110784;28;20261;-88
2024/02/03 11:04:14;;;;;;;3.60;2.63;;;;;;;;;;5087928;28;20607;-87
2024/02/03 11:06:42;;;;;;;5.70;3.03;;;;;;;;;;5075956;28;20208;-87
2024/02/03 11:09:12;;;;;;;3.70;2.80;;;;;;;;;;5106052;28;20615;-87
2024/02/03 11:11:40;;;;;;;4.47;2.57;;;;;;;;;;5096757;28;20698;-87
2024/02/03 11:14:13;;;;;;;3.20;2.77;;;;;;;;;;5102744;28;20204;-87
2024/02/03 11:16:40;;;;;;;3.53;3.10;;;;;;;;;;5108344;28;20196;-87
2024/02/03 11:19:10;;;;;;;3.57;2.70;;;;;;;;;;5107303;28;20600;-88
2024/02/03 11:21:42;;;;;;;3.47;2.80;;;;;;;;;;5094791;28;20747;-85
2024/02/03 11:24:09;;;;;;;4.03;2.67;;;;;;;;;;5099992;28;20777;-84
2024/02/03 11:26:36;;;;;;;5.00;4.30;;;;;;;;;;5076775;28;20666;-83
2024/02/03 11:29:04;;;;;;;3.50;3.20;;;;;;;;;;5113006;28;20698;-84
2024/02/03 11:31:33;;;;;;;3.43;3.13;;;;;;;;;;5113415;28;20227;-83
2024/02/03 11:34:00;;;;;;;4.87;3.43;;;;;;;;;;5094691;28;20211;-83
2024/02/03 11:36:28;;;;;;;3.20;2.90;;;;;;;;;;5099338;28;20215;-82
2024/02/03 11:38:55;;;;;;;4.30;3.17;;;;;;;;;;5113217;28;20203;-81
2024/02/03 11:41:22;;;;;;;4.57;4.17;;;;;;;;;;5113194;28;20200;-82
2024/02/03 11:43:49;;;;;;;8.83;6.10;;;;;;;;;;5113413;28;20223;-83
2024/02/03 11:46:17;;;;;;;3.53;3.00;;;;;;;;;;5093530;28;20593;-82
2024/02/03 11:48:46;;;;;;;11.07;9.60;;;;;;;;;;5089092;28;20241;-83
2024/02/03 11:51:14;;;;;;;4.03;3.53;;;;;;;;;;5109511;28;20200;-83
2024/02/03 11:53:42;;;;;;;6.10;4.80;;;;;;;;;;5109245;28;20196;-83
2024/02/03 11:56:09;;;;;;;5.67;4.33;;;;;;;;;;5110422;28;20211;-85
2024/02/03 11:58:36;;;;;;;7.93;4.97;;;;;;;;;;5113228;28;20203;-83
2024/02/03 12:01:07;;;;;;;7.53;6.03;;;;;;;;;;5094913;28;20204;-83
2024/02/03 12:03:35;;;;;;;7.30;4.60;;;;;;;;;;5100449;28;20364;-83
2024/02/03 12:06:04;;;;;;;3.80;2.93;;;;;;;;;;5098816;28;20218;-83
2024/02/03 12:08:32;;;;;;;4.10;3.70;;;;;;;;;;5112311;28;20286;-83
2024/02/03 12:11:01;;;;;;;4.50;3.83;;;;;;;;;;5100511;28;20287;-84
2024/02/03 12:13:37;;;;;;;5.40;3.60;;;;;;;;;;5060968;28;20590;-84
2024/02/03 12:16:06;;;;;;;5.67;3.50;;;;;;;;;;5107493;28;20206;-83
2024/02/03 12:18:33;;;;;;;2.90;2.70;;;;;;;;;;5094958;28;20204;-82
2024/02/03 12:21:03;;;;;;;3.50;3.20;;;;;;;;;;5098606;28;20200;-82
2024/02/03 12:23:30;;;;;;;3.67;3.10;;;;;;;;;;5108542;28;20238;-83
2024/02/03 12:25:57;;;;;;;15.73;4.53;;;;;;;;;;5082671;28;20205;-83
2024/02/03 12:28:24;;;;;;;3.57;3.27;;;;;;;;;;5077569;28;20203;-83
2024/02/03 12:30:58;;;;;;;3.03;2.80;;;;;;;;;;5112740;28;20223;-83
2024/02/03 12:33:25;;;;;;;3.90;3.07;;;;;;;;;;5112112;28;20211;-84
2024/02/03 12:35:52;;;;;;;4.90;2.90;;;;;;;;;;5112488;28;20199;-84
2024/02/03 12:38:21;;;;;;;3.20;2.83;;;;;;;;;;5094719;28;20589;-83
2024/02/03 12:40:48;;;;;;;3.83;3.27;;;;;;;;;;5110326;28;20585;-83
2024/02/03 12:43:15;;;;;;;3.93;2.90;;;;;;;;;;5112307;28;20207;-83
2024/02/03 12:45:42;;;;;;;3.90;3.20;;;;;;;;;;5092374;28;20681;-83
2024/02/03 12:48:09;;;;;;;3.93;3.43;;;;;;;;;;5101035;28;20218;-83
2024/02/03 12:50:36;;;;;;;4.23;3.83;;;;;;;;;;5110297;28;20202;-82
2024/02/03 12:53:02;;;;;;;4.43;4.00;;;;;;;;;;5101654;28;20207;-82
2024/02/03 12:55:31;;;;;;;4.73;3.60;;;;;;;;;;5098503;28;20689;-83
2024/02/03 12:57:58;;;;;;;4.07;3.67;;;;;;;;;;5102617;28;20200;-82
2024/02/03 13:00:25;;;;;;;7.13;3.47;;;;;;;;;;5105520;28;20650;-81
2024/02/03 13:02:53;;;;;;;6.13;4.13;;;;;;;;;;5102370;28;20202;-87
2024/02/03 13:05:21;;;;;;;4.20;3.60;;;;;;;;;;5098401;28;20284;-83
2024/02/03 13:07:48;;;;;;;4.17;3.77;;;;;;;;;;5100977;28;20637;-82
2024/02/03 13:10:15;;;;;;;4.73;3.77;;;;;;;;;;5105379;28;20221;-82
2024/02/03 13:12:44;;;;;;;4.60;3.90;;;;;;;;;;5104655;28;20242;-83
2024/02/03 13:15:11;;;;;;;7.67;5.30;;;;;;;;;;5098460;28;20204;-83
2024/02/03 13:17:38;;;;;;;23.60;12.60;;;;;;;;;;5098203;28;20212;-83
2024/02/03 13:20:06;;;;;;;6.27;4.93;;;;;;;;;;5098441;28;20211;-82
2024/02/03 13:22:33;;;;;;;4.10;3.70;;;;;;;;;;5107245;28;20235;-83
2024/02/03 13:25:03;;;;;;;6.23;5.10;;;;;;;;;;5102863;28;20228;-82
2024/02/03 13:27:32;;;;;;;4.73;4.23;;;;;;;;;;5111532;28;20578;-82
2024/02/03 13:30:04;;;;;;;4.53;4.07;;;;;;;;;;5111605;28;20246;-83
2024/02/03 13:32:31;;;;;;;4.77;3.30;;;;;;;;;;5094488;28;20215;-83
2024/02/03 13:34:58;;;;;;;4.30;3.90;;;;;;;;;;5101351;28;20206;-83
2024/02/03 13:37:24;;;;;;;4.83;4.33;;;;;;;;;;5108459;28;20211;-83
2024/02/03 13:39:51;;;;;;;5.30;3.47;;;;;;;;;;5091410;28;20291;-85
2024/02/03 13:42:18;;;;;;;6.03;4.33;;;;;;;;;;5104622;28;20204;-83
2024/02/03 13:44:45;;;;;;;9.13;4.00;;;;;;;;;;5101608;28;20583;-84
2024/02/03 13:47:13;;;;;;;7.90;4.40;;;;;;;;;;5093879;28;20679;-83
2024/02/03 13:49:40;;;;;;;3.57;3.17;;;;;;;;;;5091097;28;20593;-83
2024/02/03 13:52:10;;;;;;;4.83;4.00;;;;;;;;;;5109122;28;20214;-83
2024/02/03 13:54:37;;;;;;;5.43;3.27;;;;;;;;;;5105811;28;20203;-83
2024/02/03 13:57:04;;;;;;;3.70;2.77;;;;;;;;;;5111325;28;20210;-85
2024/02/03 13:59:31;;;;;;;4.03;3.63;;;;;;;;;;5110193;28;20203;-83
2024/02/03 14:01:57;;;;;;;4.43;3.70;;;;;;;;;;5111101;28;20214;-82
2024/02/03 14:04:26;;;;;;;6.33;4.40;;;;;;;;;;5102239;28;20234;-82
2024/02/03 14:06:53;;;;;;;6.80;5.40;;;;;;;;;;5107162;28;20616;-83
2024/02/03 14:09:19;;;;;;;14.47;6.13;;;;;;;;;;5106581;28;20223;-82
2024/02/03 14:11:46;;;;;;;4.73;3.90;;;;;;;;;;5110984;28;20203;-81
2024/02/03 14:14:13;;;;;;;3.77;3.37;;;;;;;;;;5111225;28;20262;-81
2024/02/03 14:16:40;;;;;;;6.10;5.27;;;;;;;;;;5104683;28;20600;-83
2024/02/03 14:19:07;;;;;;;6.97;5.10;;;;;;;;;;5104347;28;20211;-82
2024/02/03 14:21:37;;;;;;;7.07;5.07;;;;;;;;;;5097700;28;20260;-82
2024/02/03 14:24:04;;;;;;;5.27;4.00;;;;;;;;;;5093673;28;20325;-82
2024/02/03 14:26:30;;;;;;;7.60;5.93;;;;;;;;;;5101939;28;20701;-82
2024/02/03 14:29:00;;;;;;;7.80;6.00;;;;;;;;;;5111164;28;20208;-82